createdAt,value
2019-05-07T00:02:02.703Z,7.18
2019-05-07T00:04:34.560Z,7.17
2019-05-07T00:07:04.963Z,7.17
2019-05-07T00:09:37.009Z,7.15
2019-05-07T00:12:07.270Z,7.18
2019-05-07T00:14:38.103Z,7.20
2019-05-07T00:17:08.663Z,7.19
2019-05-07T00:19:39.015Z,7.17
2019-05-07T00:22:09.594Z,7.17
2019-05-07T00:24:39.918Z,7.17
2019-05-07T00:27:13.596Z,7.14
2019-05-07T00:29:43.931Z,7.17
2019-05-07T00:32:14.211Z,7.19
2019-05-07T00:34:48.926Z,7.20
2019-05-07T00:37:40.311Z,7.19
2019-05-07T00:40:32.104Z,7.20
2019-05-07T00:43:08.814Z,7.18
2019-05-07T00:46:04.185Z,7.17
2019-05-07T00:48:34.475Z,7.15
2019-05-07T00:51:22.692Z,7.13
2019-05-07T00:53:53.095Z,7.10
2019-05-07T00:56:25.283Z,7.09
2019-05-07T00:58:55.626Z,7.10
2019-05-07T01:01:25.898Z,7.08
2019-05-07T01:03:56.221Z,7.06
2019-05-07T01:06:27.604Z,7.04
2019-05-07T01:08:58.100Z,7.00
2019-05-07T01:11:28.373Z,6.96
2019-05-07T01:13:59.238Z,6.97
2019-05-07T01:16:29.624Z,6.96
2019-05-07T01:19:01.880Z,6.95
2019-05-07T01:21:32.625Z,6.95
2019-05-07T01:24:03.502Z,6.93
2019-05-07T01:26:34.219Z,6.92
2019-05-07T01:29:04.884Z,6.89
2019-05-07T01:31:39.122Z,6.88
2019-05-07T01:34:35.149Z,6.84
2019-05-07T01:37:05.733Z,6.79
2019-05-07T01:39:36.001Z,6.73
2019-05-07T01:42:08.121Z,6.70
2019-05-07T01:44:38.540Z,6.64
2019-05-07T01:47:13.065Z,6.63
2019-05-07T01:49:43.677Z,6.61
2019-05-07T01:52:15.155Z,6.55
2019-05-07T01:54:47.439Z,6.29
2019-05-07T01:57:18.416Z,6.29
2019-05-07T01:59:49.048Z,6.15
2019-05-07T02:02:25.340Z,5.99
2019-05-07T02:05:12.874Z,5.90
2019-05-07T02:07:48.903Z,5.77
2019-05-07T02:10:38.175Z,5.62
2019-05-07T02:13:08.462Z,5.49
2019-05-07T02:15:39.107Z,5.36
2019-05-07T02:18:09.410Z,5.30
2019-05-07T02:20:42.467Z,5.19
2019-05-07T02:23:12.909Z,5.11
2019-05-07T02:25:43.658Z,5.05
2019-05-07T02:28:14.158Z,4.97
2019-05-07T02:30:44.908Z,4.89
2019-05-07T02:33:15.374Z,4.79
2019-05-07T02:35:47.774Z,4.75
2019-05-07T02:38:24.043Z,4.68
2019-05-07T02:41:03.135Z,4.53
2019-05-07T02:43:34.027Z,4.53
2019-05-07T02:46:30.507Z,4.48
2019-05-07T02:48:59.106Z,4.52
2019-05-07T02:51:35.067Z,4.60
2019-05-07T02:54:13.399Z,4.51
2019-05-07T02:56:43.845Z,4.43
2019-05-07T02:59:15.508Z,4.36
2019-05-07T03:01:46.084Z,4.27
2019-05-07T03:04:18.057Z,4.26
2019-05-07T03:06:48.352Z,4.31
2019-05-07T03:09:22.799Z,4.38
2019-05-07T03:11:53.260Z,4.47
2019-05-07T03:14:24.715Z,4.56
2019-05-07T03:16:55.196Z,4.68
2019-05-07T03:19:25.776Z,4.85
2019-05-07T03:21:56.371Z,4.97
2019-05-07T03:24:45.003Z,5.03
2019-05-07T03:27:15.571Z,5.13
2019-05-07T03:29:53.976Z,5.21
2019-05-07T03:32:37.843Z,5.27
2019-05-07T03:35:16.269Z,5.40
2019-05-07T03:37:47.783Z,5.40
2019-05-07T03:40:18.100Z,5.51
2019-05-07T03:42:48.730Z,5.57
2019-05-07T03:45:43.304Z,5.60
2019-05-07T03:48:15.493Z,5.61
2019-05-07T03:50:45.949Z,5.63
2019-05-07T03:53:16.521Z,5.66
2019-05-07T03:55:46.905Z,5.72
2019-05-07T03:58:17.427Z,5.79
2019-05-07T04:00:47.683Z,5.85
2019-05-07T04:03:19.836Z,5.91
2019-05-07T04:05:53.128Z,5.95
2019-05-07T04:08:23.853Z,6.01
2019-05-07T04:10:54.426Z,6.05
2019-05-07T04:13:24.995Z,6.11
2019-05-07T04:15:55.348Z,6.16
2019-05-07T04:18:25.978Z,6.22
2019-05-07T04:20:56.557Z,6.26
2019-05-07T04:23:27.877Z,6.28
2019-05-07T04:26:17.188Z,6.33
2019-05-07T04:28:55.604Z,6.36
2019-05-07T04:31:27.896Z,6.41
2019-05-07T04:34:03.658Z,6.44
2019-05-07T04:36:43.717Z,6.47
2019-05-07T04:39:13.413Z,6.46
2019-05-07T04:41:44.715Z,6.45
2019-05-07T04:44:14.987Z,6.45
2019-05-07T04:46:48.107Z,6.48
2019-05-07T04:49:18.795Z,6.51
2019-05-07T04:52:04.051Z,6.55
2019-05-07T04:54:34.027Z,6.59
2019-05-07T04:57:06.263Z,6.63
2019-05-07T04:59:36.544Z,6.69
2019-05-07T05:02:13.771Z,6.72
2019-05-07T05:04:44.154Z,6.73
2019-05-07T05:07:14.730Z,6.76
2019-05-07T05:09:45.022Z,6.82
2019-05-07T05:12:15.657Z,6.90
2019-05-07T05:14:45.969Z,6.99
2019-05-07T05:17:16.316Z,7.14
2019-05-07T05:19:46.612Z,7.24
2019-05-07T05:22:49.108Z,7.36
2019-05-07T05:25:26.262Z,7.46
2019-05-07T05:27:56.620Z,7.55
2019-05-07T05:30:42.464Z,7.60
2019-05-07T05:33:12.753Z,7.67
2019-05-07T05:35:43.783Z,7.73
2019-05-07T05:38:14.284Z,7.81
2019-05-07T05:40:44.929Z,7.94
2019-05-07T05:43:31.971Z,8.08
2019-05-07T05:46:03.472Z,8.26
2019-05-07T05:48:34.528Z,8.48
2019-05-07T05:51:12.387Z,8.71
2019-05-07T05:53:53.178Z,8.90
2019-05-07T05:56:42.778Z,9.03
2019-05-07T05:59:44.991Z,9.14
2019-05-07T06:02:12.125Z,9.26
2019-05-07T06:04:53.916Z,9.39
2019-05-07T06:07:37.638Z,9.49
2019-05-07T06:10:22.311Z,9.56
2019-05-07T06:12:57.366Z,9.68
2019-05-07T06:15:52.763Z,9.74
2019-05-07T06:18:41.872Z,9.74
2019-05-07T06:21:32.587Z,9.76
2019-05-07T06:24:05.742Z,9.93
2019-05-07T06:26:36.351Z,10.22
2019-05-07T06:29:06.966Z,10.38
2019-05-07T06:31:37.638Z,10.37
2019-05-07T06:34:12.551Z,10.65
2019-05-07T06:36:43.412Z,11.19
2019-05-07T06:39:19.365Z,11.51
2019-05-07T06:42:07.469Z,11.53
2019-05-07T06:44:38.138Z,11.53
2019-05-07T06:47:08.486Z,11.33
2019-05-07T06:49:39.483Z,11.28
2019-05-07T06:52:12.116Z,11.33
2019-05-07T06:54:42.873Z,11.43
2019-05-07T06:57:13.179Z,11.42
2019-05-07T06:59:49.856Z,11.67
2019-05-07T07:02:28.848Z,11.82
2019-05-07T07:05:18.093Z,12.02
2019-05-07T07:08:02.171Z,12.02
2019-05-07T07:10:54.157Z,12.24
2019-05-07T07:13:25.290Z,12.29
2019-05-07T07:15:57.217Z,12.23
2019-05-07T07:18:27.702Z,12.42
2019-05-07T07:21:02.232Z,12.44
2019-05-07T07:23:32.820Z,12.77
2019-05-07T07:26:03.450Z,13.31
2019-05-07T07:28:34.285Z,13.38
2019-05-07T07:31:26.764Z,14.11
2019-05-07T07:33:58.174Z,14.84
2019-05-07T07:36:32.026Z,15.61
2019-05-07T07:39:03.882Z,16.86
2019-05-07T07:41:38.170Z,18.05
2019-05-07T07:44:09.707Z,18.89
2019-05-07T07:46:42.493Z,20.52
2019-05-07T07:49:15.029Z,21.76
2019-05-07T07:51:46.040Z,22.81
2019-05-07T07:54:17.544Z,24.15
2019-05-07T07:57:12.472Z,24.38
2019-05-07T07:59:56.825Z,24.32
2019-05-07T08:02:34.013Z,23.41
2019-05-07T08:05:05.349Z,23.75
2019-05-07T08:07:37.100Z,25.29
2019-05-07T08:10:08.317Z,25.59
2019-05-07T08:12:38.955Z,23.14
2019-05-07T08:15:20.863Z,20.84
2019-05-07T08:17:52.658Z,18.55
2019-05-07T08:20:26.653Z,16.56
2019-05-07T08:22:57.118Z,14.88
2019-05-07T08:25:45.066Z,14.88
2019-05-07T08:28:17.469Z,14.39
2019-05-07T08:31:02.944Z,14.39
2019-05-07T08:33:33.553Z,15.15
2019-05-07T08:36:09.195Z,15.40
2019-05-07T08:38:53.237Z,15.02
2019-05-07T08:41:25.709Z,14.94
2019-05-07T08:44:11.747Z,14.54
2019-05-07T08:46:56.304Z,14.27
2019-05-07T08:49:37.051Z,14.03
2019-05-07T08:52:04.090Z,14.24
2019-05-07T08:54:34.942Z,14.34
2019-05-07T08:57:05.366Z,13.93
2019-05-07T08:59:36.336Z,13.46
2019-05-07T09:02:06.596Z,13.46
2019-05-07T09:04:37.802Z,13.64
2019-05-07T09:07:08.225Z,14.01
2019-05-07T09:09:38.517Z,14.38
2019-05-07T09:12:09.417Z,14.60
2019-05-07T09:14:42.556Z,14.87
2019-05-07T09:17:13.117Z,14.89
2019-05-07T09:19:51.076Z,14.76
2019-05-07T09:22:18.071Z,14.74
2019-05-07T09:24:49.146Z,14.83
2019-05-07T09:27:33.097Z,14.69
2019-05-07T09:30:17.027Z,14.82
2019-05-07T09:32:53.417Z,14.90
2019-05-07T09:35:46.187Z,15.20
2019-05-07T09:38:16.462Z,15.84
2019-05-07T09:40:46.786Z,16.41
2019-05-07T09:43:17.579Z,16.95
2019-05-07T09:45:49.452Z,17.16
2019-05-07T09:48:22.000Z,16.32
2019-05-07T09:50:54.006Z,15.20
2019-05-07T09:53:27.518Z,15.06
2019-05-07T09:56:01.993Z,14.93
2019-05-07T09:58:38.797Z,15.11
2019-05-07T10:01:04.264Z,14.76
2019-05-07T10:03:34.818Z,14.10
2019-05-07T10:06:05.267Z,13.96
2019-05-07T10:08:36.027Z,14.00
2019-05-07T10:11:08.184Z,13.73
2019-05-07T10:14:03.618Z,13.51
2019-05-07T10:16:56.292Z,13.16
2019-05-07T10:19:26.874Z,13.01
2019-05-07T10:21:57.361Z,12.93
2019-05-07T10:24:28.004Z,12.92
2019-05-07T10:27:02.255Z,12.84
2019-05-07T10:29:34.077Z,12.72
2019-05-07T10:32:04.624Z,12.61
2019-05-07T10:34:34.957Z,12.38
2019-05-07T10:37:07.349Z,11.71
2019-05-07T10:39:39.205Z,11.71
2019-05-07T10:42:09.778Z,11.54
2019-05-07T10:44:46.456Z,11.50
2019-05-07T10:47:39.094Z,11.55
2019-05-07T10:50:33.109Z,11.69
2019-05-07T10:52:54.277Z,11.85
2019-05-07T10:55:24.836Z,12.09
2019-05-07T10:57:55.132Z,12.09
2019-05-07T11:00:26.484Z,12.06
2019-05-07T11:02:58.475Z,11.80
2019-05-07T11:05:28.858Z,11.47
2019-05-07T11:07:59.167Z,11.23
2019-05-07T11:10:29.468Z,10.83
2019-05-07T11:13:02.113Z,10.31
2019-05-07T11:15:35.396Z,10.00
2019-05-07T11:18:14.042Z,9.97
2019-05-07T11:20:49.307Z,10.15
2019-05-07T11:23:16.755Z,10.17
2019-05-07T11:25:48.573Z,10.27
2019-05-07T11:28:18.878Z,10.37
2019-05-07T11:30:49.416Z,10.34
2019-05-07T11:33:21.863Z,10.66
2019-05-07T11:35:52.829Z,10.91
2019-05-07T11:38:24.943Z,11.12
2019-05-07T11:40:56.716Z,11.32
2019-05-07T11:43:42.251Z,11.38
2019-05-07T11:46:16.337Z,11.35
2019-05-07T11:48:55.188Z,11.44
2019-05-07T11:51:47.572Z,11.61
2019-05-07T11:54:17.862Z,11.87
2019-05-07T11:56:48.165Z,12.00
2019-05-07T11:59:18.900Z,12.41
2019-05-07T12:01:52.855Z,13.98
2019-05-07T12:04:23.210Z,15.32
2019-05-07T12:06:53.541Z,15.19
2019-05-07T12:09:24.112Z,15.08
2019-05-07T12:11:54.673Z,15.51
2019-05-07T12:14:31.383Z,15.86
2019-05-07T12:16:57.720Z,15.96
2019-05-07T12:19:27.985Z,15.99
2019-05-07T12:21:59.692Z,15.92
2019-05-07T12:24:32.699Z,16.20
2019-05-07T12:27:02.763Z,16.28
2019-05-07T12:29:33.153Z,16.09
2019-05-07T12:32:23.527Z,16.38
2019-05-07T12:35:02.273Z,16.95
2019-05-07T12:37:34.251Z,17.48
2019-05-07T12:40:05.713Z,17.74
2019-05-07T12:42:36.415Z,18.26
2019-05-07T12:45:07.247Z,18.49
2019-05-07T12:47:37.731Z,18.54
2019-05-07T12:50:08.523Z,17.86
2019-05-07T12:53:02.307Z,16.95
2019-05-07T12:55:39.800Z,16.75
2019-05-07T12:58:12.483Z,16.95
2019-05-07T13:01:01.303Z,17.17
2019-05-07T13:03:56.957Z,17.49
2019-05-07T13:06:27.613Z,17.74
2019-05-07T13:08:58.212Z,17.94
2019-05-07T13:11:28.473Z,18.14
2019-05-07T13:14:02.003Z,18.48
2019-05-07T13:16:32.488Z,17.90
2019-05-07T13:19:03.035Z,18.14
2019-05-07T13:21:45.853Z,18.09
2019-05-07T13:24:06.162Z,17.68
2019-05-07T13:26:36.903Z,17.46
2019-05-07T13:29:07.618Z,17.41
2019-05-07T13:31:38.259Z,17.31
2019-05-07T13:34:08.931Z,17.09
2019-05-07T13:36:42.649Z,17.02
2019-05-07T13:39:44.329Z,17.24
2019-05-07T13:42:32.505Z,17.60
2019-05-07T13:45:22.444Z,17.92
2019-05-07T13:48:02.831Z,18.25
2019-05-07T13:50:33.517Z,18.28
2019-05-07T13:53:04.195Z,18.04
2019-05-07T13:55:34.534Z,18.04
2019-05-07T13:58:05.138Z,17.93
2019-05-07T14:00:45.001Z,17.25
2019-05-07T14:03:15.297Z,17.11
2019-05-07T14:05:46.358Z,17.14
2019-05-07T14:08:17.550Z,17.38
2019-05-07T14:10:48.196Z,17.45
2019-05-07T14:13:22.651Z,17.44
2019-05-07T14:16:11.868Z,17.42
2019-05-07T14:18:42.234Z,17.55
2019-05-07T14:21:13.137Z,17.69
2019-05-07T14:23:43.845Z,17.49
2019-05-07T14:26:16.971Z,16.83
2019-05-07T14:28:47.358Z,16.45
2019-05-07T14:31:19.551Z,16.06
2019-05-07T14:34:04.609Z,15.78
2019-05-07T14:36:49.344Z,15.41
2019-05-07T14:39:22.046Z,15.02
2019-05-07T14:41:54.471Z,14.48
2019-05-07T14:44:36.029Z,14.10
2019-05-07T14:47:06.799Z,13.75
2019-05-07T14:49:37.919Z,13.58
2019-05-07T14:52:12.311Z,13.49
2019-05-07T14:54:43.178Z,13.54
2019-05-07T14:57:13.881Z,13.60
2019-05-07T14:59:44.975Z,13.52
2019-05-07T15:02:15.344Z,13.62
2019-05-07T15:04:47.078Z,13.58
2019-05-07T15:07:17.817Z,13.66
2019-05-07T15:09:51.759Z,13.86
2019-05-07T15:12:23.348Z,13.95
2019-05-07T15:14:53.690Z,14.06
2019-05-07T15:17:33.964Z,14.25
2019-05-07T15:20:04.595Z,14.29
2019-05-07T15:22:52.681Z,14.38
2019-05-07T15:25:24.443Z,14.32
2019-05-07T15:27:55.020Z,14.26
2019-05-07T15:30:26.983Z,14.20
2019-05-07T15:32:57.839Z,14.36
2019-05-07T15:35:31.861Z,14.51
2019-05-07T15:38:02.424Z,14.66
2019-05-07T15:40:33.121Z,14.52
2019-05-07T15:43:03.689Z,14.54
2019-05-07T15:45:34.267Z,14.56
2019-05-07T15:48:06.176Z,14.71
2019-05-07T15:50:37.144Z,14.76
2019-05-07T15:53:32.446Z,14.92
2019-05-07T15:56:03.762Z,14.87
2019-05-07T15:58:35.403Z,14.80
2019-05-07T16:01:08.323Z,14.73
2019-05-07T16:03:42.906Z,14.70
2019-05-07T16:06:13.692Z,14.68
2019-05-07T16:08:50.815Z,14.68
2019-05-07T16:11:25.526Z,14.73
2019-05-07T16:14:27.221Z,14.89
2019-05-07T16:17:10.360Z,14.98
2019-05-07T16:19:42.576Z,14.99
2019-05-07T16:22:17.311Z,15.08
2019-05-07T16:24:47.738Z,15.17
2019-05-07T16:27:18.320Z,15.17
2019-05-07T16:29:57.533Z,15.19
2019-05-07T16:32:27.927Z,15.12
2019-05-07T16:34:58.671Z,14.90
2019-05-07T16:37:29.277Z,14.75
2019-05-07T16:40:01.602Z,14.67
2019-05-07T16:42:33.536Z,14.64
2019-05-07T16:45:04.286Z,14.79
2019-05-07T16:47:34.856Z,14.82
2019-05-07T16:50:06.277Z,14.72
2019-05-07T16:52:37.102Z,14.60
2019-05-07T16:55:08.040Z,14.51
2019-05-07T16:57:47.104Z,14.50
2019-05-07T17:00:26.550Z,14.65
2019-05-07T17:02:58.583Z,14.64
2019-05-07T17:05:28.990Z,14.60
2019-05-07T17:08:18.569Z,14.62
2019-05-07T17:10:49.206Z,14.34
2019-05-07T17:13:19.840Z,13.83
2019-05-07T17:16:03.357Z,13.61
2019-05-07T17:18:35.504Z,13.36
2019-05-07T17:21:06.031Z,13.18
2019-05-07T17:23:44.040Z,13.00
2019-05-07T17:26:12.269Z,12.76
2019-05-07T17:28:42.909Z,12.82
2019-05-07T17:31:13.540Z,12.82
2019-05-07T17:33:45.235Z,12.87
2019-05-07T17:36:18.598Z,12.83
2019-05-07T17:38:51.983Z,12.78
2019-05-07T17:41:27.028Z,12.72
2019-05-07T17:43:55.421Z,12.65
2019-05-07T17:46:26.312Z,12.56
2019-05-07T17:48:56.792Z,12.45
2019-05-07T17:51:46.333Z,12.33
2019-05-07T17:54:16.698Z,12.22
2019-05-07T17:56:48.464Z,12.07
2019-05-07T17:59:20.142Z,11.98
2019-05-07T18:02:15.323Z,11.87
2019-05-07T18:04:51.318Z,11.79
2019-05-07T18:07:19.328Z,11.74
2019-05-07T18:09:49.734Z,11.71
2019-05-07T18:12:22.677Z,11.66
2019-05-07T18:14:58.043Z,11.64
2019-05-07T18:17:42.071Z,11.60
2019-05-07T18:20:12.921Z,11.52
2019-05-07T18:22:45.028Z,11.47
2019-05-07T18:25:17.417Z,11.43
2019-05-07T18:27:52.555Z,11.35
2019-05-07T18:30:22.529Z,11.26
2019-05-07T18:32:58.974Z,11.18
2019-05-07T18:35:29.771Z,11.06
2019-05-07T18:38:02.489Z,10.90
2019-05-07T18:40:32.561Z,10.81
2019-05-07T18:43:03.732Z,10.71
2019-05-07T18:45:34.015Z,10.66
2019-05-07T18:48:06.962Z,10.66
2019-05-07T18:50:37.388Z,10.62
2019-05-07T18:53:07.973Z,10.62
2019-05-07T18:55:38.308Z,10.55
2019-05-07T18:58:13.516Z,10.45
2019-05-07T19:00:51.912Z,10.34
2019-05-07T19:03:25.232Z,10.19
2019-05-07T19:05:54.814Z,10.09
2019-05-07T19:08:26.522Z,9.95
2019-05-07T19:10:56.980Z,9.77
2019-05-07T19:13:27.550Z,9.60
2019-05-07T19:15:57.943Z,9.44
2019-05-07T19:18:32.032Z,9.34
2019-05-07T19:21:01.856Z,9.20
2019-05-07T19:23:33.068Z,9.03
2019-05-07T19:26:03.690Z,8.89
2019-05-07T19:28:34.049Z,8.74
2019-05-07T19:31:05.573Z,8.61
2019-05-07T19:33:36.230Z,8.49
2019-05-07T19:36:07.868Z,8.38
2019-05-07T19:38:38.296Z,8.31
2019-05-07T19:41:08.890Z,8.22
2019-05-07T19:43:39.370Z,8.13
2019-05-07T19:46:12.235Z,8.08
2019-05-07T19:48:44.074Z,8.03
2019-05-07T19:51:14.895Z,7.98
2019-05-07T19:53:45.449Z,7.92
2019-05-07T19:56:18.249Z,7.90
2019-05-07T19:58:48.899Z,7.85
2019-05-07T20:01:23.753Z,7.81
2019-05-07T20:03:54.047Z,7.75
2019-05-07T20:06:24.610Z,7.70
2019-05-07T20:09:09.025Z,7.69
2019-05-07T20:11:44.756Z,7.65
2019-05-07T20:14:15.187Z,7.65
2019-05-07T20:16:45.532Z,7.67
2019-05-07T20:19:15.992Z,7.76
2019-05-07T20:21:52.365Z,7.74
2019-05-07T20:24:22.914Z,7.74
2019-05-07T20:26:53.609Z,7.73
2019-05-07T20:29:24.010Z,7.69
2019-05-07T20:31:54.658Z,7.68
2019-05-07T20:34:24.977Z,7.69
2019-05-07T20:36:55.303Z,7.70
2019-05-07T20:39:25.728Z,7.58
2019-05-07T20:41:56.170Z,7.45
2019-05-07T20:44:26.679Z,7.35
2019-05-07T20:46:57.644Z,7.25
2019-05-07T20:49:28.084Z,7.18
2019-05-07T20:51:58.476Z,7.11
2019-05-07T20:54:50.319Z,7.08
2019-05-07T20:57:26.472Z,7.04
2019-05-07T20:59:58.024Z,6.99
2019-05-07T21:02:42.534Z,6.97
2019-05-07T21:05:02.990Z,6.95
2019-05-07T21:07:34.553Z,6.93
2019-05-07T21:10:05.651Z,6.94
2019-05-07T21:12:36.023Z,6.89
2019-05-07T21:15:06.667Z,6.87
2019-05-07T21:17:37.066Z,6.87
2019-05-07T21:20:07.740Z,6.86
2019-05-07T21:22:38.309Z,6.86
2019-05-07T21:25:08.794Z,6.83
2019-05-07T21:27:39.210Z,6.79
2019-05-07T21:30:09.775Z,6.74
2019-05-07T21:32:42.115Z,6.71
2019-05-07T21:35:12.935Z,6.66
2019-05-07T21:37:43.596Z,6.63
2019-05-07T21:40:16.015Z,6.69
2019-05-07T21:42:49.330Z,6.72
2019-05-07T21:45:23.650Z,6.72
2019-05-07T21:47:54.385Z,6.73
2019-05-07T21:50:23.971Z,6.69
2019-05-07T21:52:59.553Z,6.66
2019-05-07T21:55:35.901Z,6.61
2019-05-07T21:58:43.503Z,6.56
2019-05-07T22:01:22.177Z,6.50
2019-05-07T22:03:54.365Z,6.48
2019-05-07T22:06:24.695Z,6.52
2019-05-07T22:08:56.620Z,6.61
2019-05-07T22:11:26.949Z,6.84
2019-05-07T22:13:57.254Z,6.98
2019-05-07T22:16:27.761Z,7.13
2019-05-07T22:18:58.108Z,7.27
2019-05-07T22:21:28.673Z,7.42
2019-05-07T22:23:58.954Z,7.56
2019-05-07T22:26:32.008Z,7.55
2019-05-07T22:29:03.120Z,7.49
2019-05-07T22:31:58.551Z,7.51
2019-05-07T22:34:51.879Z,7.50
2019-05-07T22:37:23.957Z,7.48
2019-05-07T22:40:05.103Z,7.45
2019-05-07T22:42:38.734Z,7.45
2019-05-07T22:45:12.097Z,7.45
2019-05-07T22:47:43.060Z,7.57
2019-05-07T22:50:13.458Z,7.75
2019-05-07T22:52:45.068Z,7.85
2019-05-07T22:55:15.624Z,7.86
2019-05-07T22:58:15.277Z,7.86
2019-05-07T23:00:54.884Z,7.88
2019-05-07T23:03:25.259Z,7.94
2019-05-07T23:05:57.486Z,7.98
2019-05-07T23:08:29.854Z,8.06
2019-05-07T23:11:02.822Z,8.13
2019-05-07T23:13:33.120Z,8.14
2019-05-07T23:16:06.983Z,8.20
2019-05-07T23:18:38.239Z,8.24
2019-05-07T23:21:09.097Z,8.26
2019-05-07T23:23:42.003Z,8.34
2019-05-07T23:26:14.887Z,8.40
2019-05-07T23:28:45.216Z,8.47
2019-05-07T23:31:17.303Z,8.50
2019-05-07T23:33:52.382Z,8.54
2019-05-07T23:36:24.681Z,8.58
2019-05-07T23:38:55.046Z,8.61
2019-05-07T23:41:45.160Z,8.61
2019-05-07T23:44:16.883Z,8.63
2019-05-07T23:46:47.398Z,8.70
2019-05-07T23:49:17.785Z,8.73
2019-05-07T23:51:48.372Z,8.72
2019-05-07T23:54:18.857Z,8.66
2019-05-07T23:57:04.460Z,8.67
2019-05-07T23:59:22.157Z,8.63
